Página principal
METAR-TAF:

METAR-TAF

Aeroportos :

Colmenar Viejo, Espanha

latitude: 40-39N, longitude: 003-44W, altura: -999 m

Observação actual do tempo

O boletim foi feito há 27 minutos, às 13:00 UTC
Vento 2 kt com direcção variável
Temperatura 28°C
Humidade 20%
Pressão 1026 hPa
Visibilidade 10 km ou mais
sem nuvens abaixo de 1500 metros e sem cumulonimbus

METAR: LECV 071300Z VRB02KT CAVOK 28/03 Q1026

Hora: 15:27 (13:27 UTC)

Previsão

O boletim foi feito há 2 horas e 27 minutos, às 11:00 UTC
Previsão válida de 07 às 12 UTC a 08 às 12 UTC
Vento 5 kt com direcção variável
Visibilidade 10 km ou mais
sem nuvens abaixo de 1500 metros e sem cumulonimbus
Temporariamente
de 07 às 12 UTC a 08 às 10 UTC
Vento 10 kt de nordeste

TAF: LECV 071100Z 0712/0812 VRB05KT CAVOK TX29/0716Z TN14/0805Z TEMPO 0712/0810 05010KT

Observações e previsões do tempo de mais de 4000 aeroportos (mensagens METAR e TAF).

As estações disponíveis são os pontos amarelos e vermelhos sobre o mapa.

Mova o rato sobre o mapa para ver o nome da estação.

Depois clique no ponto para visualizar as observações e previsões meteorológicas.

Para alterar o mapa : clique nos botões verdes com uma cruz preta para aumentar o zoom; no botão verde com uma pitada de zoom; ou nas setas verdes para mapas adjacentes.


METAR-TAF: